• Join FlightAware (Why Join?)
  • Login
  • US Flag 
10:04AM EDT


 

Airport Tracker/Info


-or-


 

Live Flight TrackerFlight Track Log ✈ CTL62 ✈ 03-Aug-2013 ✈ KPWK - KOSU

Flight Track Log - Related Links

Times and Time Zones

All times are in EDT time to prevent confusion due to time zone crossing. See the CTL62 flight status page for this flight to view local times or setup timezone preferences in your user account.

Time Position Orientation Groundspeed Altitude Reporting Facility
EDT Latitude Longitude Course Direction KTS MPH feet Rate Location/Type
02:14AM 42.1461 -87.7928 97° East 127 146 2,900  Level Chicago Center
02:15AM 42.1483 -87.7528 86° East 114 131 3,700 780 Climbing Chicago Center
02:16AM 42.1486 -87.7128 89° East 108 124 4,500 600 Climbing Chicago Center
02:17AM 42.1469 -87.6747 93° East 103 119 5,000 540 Climbing Chicago Center
02:18AM 41.9686 -87.5410 109° East  Level FlightAware Approximate
02:18AM 42.1469 -87.6311 90° East 113 130 5,600  Level Chicago Center
02:19AM 42.1392 -87.5858 103° East 125 144 6,200 600 Climbing Chicago Center
02:20AM 42.1194 -87.5461 124° Southeast 127 146 6,800 360 Climbing Chicago Center
02:21AM 42.0992 -87.5061 124° Southeast 131 151 7,000 60 Climbing Chicago Center
02:22AM 42.0775 -87.4508 118° Southeast 162 186 7,000  Level Chicago Center
02:23AM 42.0525 -87.3917 120° Southeast 179 206 7,000  Level Chicago Center
02:24AM 42.0283 -87.3356 120° Southeast 176 203 7,000  Level Chicago Center
02:25AM 42.0036 -87.2756 119° Southeast 180 207 7,100  Climbing Chicago Center
02:26AM 41.9764 -87.2164 122° Southeast 184 212 7,000 -120 Descending Chicago Center
02:27AM 41.9483 -87.1572 123° Southeast 188 216 6,900  Descending Chicago Center
02:28AM 41.9172 -87.1006 126° Southeast 188 216 7,000  Climbing Chicago Center
02:29AM 41.8942 -87.0383 116° Southeast 187 215 7,000  Level Chicago Center
02:30AM 41.8689 -86.9769 119° Southeast 189 217 7,000  Level Chicago Center
02:31AM 41.8442 -86.9175 119° Southeast 185 213 7,000  Level Chicago Center
02:32AM 41.8164 -86.8597 123° Southeast 185 213 7,000  Level Chicago Center
02:33AM 41.7853 -86.7897 121° Southeast 184 212 7,100  Climbing Chicago Center
02:34AM 41.7583 -86.7297 121° Southeast 188 216 7,000 -60 Descending Chicago Center
02:35AM 41.7369 -86.6800 120° Southeast 187 215 7,000  Level Chicago Center
02:36AM 41.7097 -86.6225 122° Southeast 184 212 7,000  Level Chicago Center
02:37AM 41.6850 -86.5656 120° Southeast 180 207 7,000  Level Chicago Center
02:38AM 41.6581 -86.5061 121° Southeast 185 213 7,000 -60 Level Chicago Center
02:39AM 41.6325 -86.4478 120° Southeast 182 209 6,900 -60 Descending Chicago Center
02:40AM 41.6075 -86.3867 119° Southeast 186 214 6,900  Level Chicago Center
02:41AM 41.5794 -86.3283 123° Southeast 185 213 7,000 60 Climbing Chicago Center
02:42AM 41.5481 -86.2589 121° Southeast 183 211 7,100  Climbing Chicago Center
02:43AM 41.5206 -86.2000 122° Southeast 186 214 7,100 -60 Level Chicago Center
02:44AM 41.4931 -86.1394 121° Southeast 190 219 7,000  Descending Chicago Center
02:45AM 41.4658 -86.0800 121° Southeast 190 219 7,100  Climbing Chicago Center
02:46AM 41.4394 -86.0203 121° Southeast 188 216 7,000 -60 Descending Chicago Center
02:47AM 41.4122 -85.9594 121° Southeast 191 220 7,000  Level Chicago Center
02:48AM 41.3856 -85.8994 121° Southeast 190 219 7,000  Level Chicago Center
02:49AM 41.3583 -85.8381 121° Southeast 190 219 7,000  Level Chicago Center
02:50AM 41.3311 -85.7783 121° Southeast 191 220 7,000 -60 Level Chicago Center
02:51AM 41.3036 -85.7203 122° Southeast 189 217 6,900 -60 Descending Chicago Center
02:52AM 41.2764 -85.6614 122° Southeast 188 216 6,900  Level Chicago Center
02:53AM 41.2506 -85.6014 120° Southeast 188 216 7,000 60 Climbing Chicago Center
02:54AM 41.2242 -85.5406 120° Southeast 191 220 7,100  Climbing Chicago Center
02:55AM 41.1994 -85.4842 120° Southeast 180 207 7,000 -60 Descending Chicago Center
02:56AM 41.1731 -85.4250 121° Southeast 184 212 7,000 -60 Level Chicago Center
02:57AM 41.1461 -85.3644 121° Southeast 189 217 6,900  Descending Chicago Center
02:58AM 41.1194 -85.3047 121° Southeast 189 217 7,000  Climbing Chicago Center
02:59AM 41.0931 -85.2425 119° Southeast 193 222 7,000  Level Chicago Center
03:00AM 41.0669 -85.1856 121° Southeast 187 215 7,000  Level Chicago Center
03:01AM 41.0403 -85.1281 122° Southeast 185 213 7,000  Level Chicago Center
03:02AM 41.0161 -85.0675 118° Southeast 185 213 7,100  Climbing Chicago Center
03:03AM 40.9894 -85.0100 122° Southeast 184 212 7,100  Level Chicago Center
03:04AM 40.9647 -84.9519 119° Southeast 183 211 7,200 -60 Climbing Chicago Center
03:05AM 40.9367 -84.8936 122° Southeast 185 213 7,000 -120 Descending Chicago Center
03:06AM 40.9108 -84.8364 121° Southeast 184 212 7,000 -60 Level Chicago Center
03:07AM 40.8847 -84.7819 122° Southeast 179 206 6,900 -60 Descending Chicago Center
03:08AM 40.8647 -84.7408 123° Southeast 181 208 6,900  Level Indianapolis Center
03:09AM 40.8406 -84.6844 120° Southeast 179 206 7,000  Climbing Indianapolis Center
03:10AM 40.8167 -84.6281 119° Southeast 180 207 7,000  Level Indianapolis Center
03:11AM 40.7928 -84.5733 120° Southeast 179 206 7,000  Level Indianapolis Center
03:12AM 40.7481 -84.4786 122° Southeast 160 184 7,000  Level Indianapolis Center
03:13AM 40.7164 -84.4181 125° Southeast 182 209 7,100  Climbing Indianapolis Center
03:14AM 40.6842 -84.3486 121° Southeast 185 213 7,000 -60 Descending Indianapolis Center
03:15AM 40.6564 -84.2911 122° Southeast 187 215 7,000  Level Indianapolis Center
03:16AM 40.6289 -84.2336 122° Southeast 183 211 7,000  Level Indianapolis Center
03:17AM 40.6036 -84.1736 119° Southeast 185 213 7,000  Level Indianapolis Center
03:18AM 40.5825 -84.1147 115° Southeast 188 216 7,100 -60 Climbing Indianapolis Center
03:19AM 40.5544 -84.0600 124° Southeast 177 204 6,900 -60 Descending Indianapolis Center
03:20AM 40.5264 -84.0053 124° Southeast 177 204 7,000  Climbing Indianapolis Center
03:21AM 40.4986 -83.9481 123° Southeast 180 207 7,000  Level Indianapolis Center
03:22AM 40.4756 -83.8861 116° Southeast 181 208 7,000  Level Indianapolis Center
03:23AM 40.4631 -83.8233 105° East 185 213 7,000  Level Indianapolis Center
03:24AM 40.4364 -83.7747 126° Southeast 174 200 7,100  Climbing Indianapolis Center
03:25AM 40.4033 -83.7278 133° Southeast 179 206 7,100  Level Indianapolis Center
03:26AM 40.3775 -83.6711 121° Southeast 185 213 7,100 -60 Level Indianapolis Center
03:27AM 40.3500 -83.6114 121° Southeast 188 216 7,000 -120 Descending Indianapolis Center
03:28AM 40.3161 -83.5506 126° Southeast 185 213 6,900 -360 Descending Indianapolis Center
03:29AM 40.2867 -83.4881 122° Southeast 206 237 6,300 -660 Descending Indianapolis Center
03:30AM 40.2564 -83.4308 125° Southeast 202 232 5,700 -720 Descending Indianapolis Center
03:31AM 40.2244 -83.3706 125° Southeast 201 231 5,000 -900 Descending Indianapolis Center
03:32AM 40.1928 -83.3078 123° Southeast 203 234 4,000 -840 Descending Indianapolis Center
03:33AM 40.1603 -83.2531 128° Southeast 195 224 3,300 -660 Descending Indianapolis Center
03:34AM 40.1272 -83.2064 133° Southeast 177 204 2,700 -600 Descending Indianapolis Center
03:36AM 40.1006 -83.1450 119° Southeast  Level FlightAware Approximate
03:43AM 40.0798 -83.0732 123° Southeast  Level Estimated
03:44AM 40.0798 -83.0732 123° Southeast  Level Estimated
03:45AM 40.0798 -83.0732 123° Southeast  Level Estimated